Time;durP1;ratioP1;P1;durP2;ratioP2;P2;SDS_P1;SDS_P2;PMS_P1;PMS_P2;Temp;Humidity;BMP_temperature;BMP_pressure;BME280_temperature;BME280_humidity;BME280_pressure;Samples;Min_cycle;Max_cycle;Signal;HPM_P1;HPM_P2
2023/08/10 00:02:18;;;;;;;15.53;3.20;;;;;;;;;;743504;186;925211;-62
2023/08/10 00:04:44;;;;;;;19.97;2.87;;;;;;;;;;742526;186;918478;-64
2023/08/10 00:07:09;;;;;;;42.20;3.73;;;;;;;;;;752615;185;761556;-64
2023/08/10 00:09:35;;;;;;;20.60;2.65;;;;;;;;;;748632;185;816212;-64
2023/08/10 00:12:01;;;;;;;20.53;2.57;;;;;;;;;;746075;185;918906;-62
2023/08/10 00:14:27;;;;;;;22.33;3.43;;;;;;;;;;744340;186;919247;-62
2023/08/10 00:16:53;;;;;;;42.73;3.17;;;;;;;;;;752047;186;891001;-64
2023/08/10 00:19:19;;;;;;;34.10;3.00;;;;;;;;;;748432;185;918545;-64
2023/08/10 00:21:45;;;;;;;43.00;3.93;;;;;;;;;;746619;185;918943;-64
2023/08/10 00:24:10;;;;;;;63.70;3.80;;;;;;;;;;753343;184;939916;-62
2023/08/10 00:26:36;;;;;;;105.77;5.03;;;;;;;;;;746999;184;923053;-62
2023/08/10 00:29:02;;;;;;;73.47;4.80;;;;;;;;;;747035;185;919467;-62
2023/08/10 00:31:28;;;;;;;68.80;3.87;;;;;;;;;;751558;185;918272;-62
2023/08/10 00:33:54;;;;;;;54.47;3.87;;;;;;;;;;744737;185;921392;-62
2023/08/10 00:36:20;;;;;;;19.53;2.83;;;;;;;;;;745319;183;919174;-65
2023/08/10 00:38:46;;;;;;;23.60;3.07;;;;;;;;;;743131;186;920929;-65
2023/08/10 00:41:12;;;;;;;58.37;4.00;;;;;;;;;;751452;184;919609;-64
2023/08/10 00:43:38;;;;;;;155.43;7.43;;;;;;;;;;748324;185;919545;-61
2023/08/10 00:46:03;;;;;;;70.43;4.37;;;;;;;;;;745434;185;919144;-61
2023/08/10 00:48:29;;;;;;;72.00;6.07;;;;;;;;;;749884;185;821005;-65
2023/08/10 00:50:55;;;;;;;114.87;5.73;;;;;;;;;;745927;185;919644;-62
2023/08/10 00:53:21;;;;;;;41.20;3.87;;;;;;;;;;745919;185;919615;-64
2023/08/10 00:55:51;;;;;;;94.47;4.97;;;;;;;;;;749663;184;920843;-64
2023/08/10 00:58:15;;;;;;;80.17;4.63;;;;;;;;;;746528;185;931063;-64
2023/08/10 01:00:41;;;;;;;51.47;3.80;;;;;;;;;;751799;185;919260;-62
2023/08/10 01:03:07;;;;;;;44.33;3.33;;;;;;;;;;748185;185;817474;-65
2023/08/10 01:05:34;;;;;;;103.40;6.15;;;;;;;;;;750538;184;897165;-64
2023/08/10 01:08:04;;;;;;;100.70;5.50;;;;;;;;;;745334;184;919025;-61
2023/08/10 01:10:30;;;;;;;34.33;4.50;;;;;;;;;;746606;184;919310;-62
2023/08/10 01:12:58;;;;;;;54.90;4.07;;;;;;;;;;749287;185;915310;-65
2023/08/10 01:15:24;;;;;;;55.20;3.43;;;;;;;;;;751588;184;925894;-61
2023/08/10 01:17:51;;;;;;;42.27;3.40;;;;;;;;;;742682;185;894745;-65
2023/08/10 01:20:17;;;;;;;49.73;3.67;;;;;;;;;;746654;184;915672;-65
2023/08/10 01:22:50;;;;;;;52.23;4.60;;;;;;;;;;750704;184;812652;-62
2023/08/10 01:25:15;;;;;;;81.73;4.83;;;;;;;;;;745782;184;940746;-65
2023/08/10 01:27:41;;;;;;;69.10;4.60;;;;;;;;;;745148;184;898429;-62
2023/08/10 01:30:08;;;;;;;27.77;3.33;;;;;;;;;;747512;185;939744;-61
2023/08/10 01:32:33;;;;;;;41.17;3.23;;;;;;;;;;745622;184;919887;-64
2023/08/10 01:34:59;;;;;;;25.07;2.70;;;;;;;;;;748159;184;919011;-61
2023/08/10 01:37:24;;;;;;;25.43;3.33;;;;;;;;;;749401;184;921123;-62
2023/08/10 01:39:50;;;;;;;69.73;4.87;;;;;;;;;;749393;184;919760;-65
2023/08/10 01:42:16;;;;;;;53.23;3.57;;;;;;;;;;745922;185;920245;-64
2023/08/10 01:44:42;;;;;;;32.60;3.90;;;;;;;;;;745266;184;919539;-65
2023/08/10 01:47:09;;;;;;;61.77;4.53;;;;;;;;;;756157;185;920267;-61
2023/08/10 01:49:35;;;;;;;130.13;6.00;;;;;;;;;;750377;184;920114;-65
2023/08/10 01:52:01;;;;;;;95.13;5.33;;;;;;;;;;750680;185;918430;-66
2023/08/10 01:54:27;;;;;;;131.23;6.03;;;;;;;;;;736302;188;919296;-65
2023/08/10 01:56:53;;;;;;;82.87;6.10;;;;;;;;;;750180;185;919901;-64
2023/08/10 01:59:19;;;;;;;82.50;5.40;;;;;;;;;;745392;185;919186;-65
2023/08/10 02:01:45;;;;;;;129.90;6.50;;;;;;;;;;745266;185;954259;-65
2023/08/10 02:04:10;;;;;;;57.27;4.97;;;;;;;;;;751068;184;919432;-60
2023/08/10 02:06:40;;;;;;;59.57;4.90;;;;;;;;;;742955;186;921252;-65
2023/08/10 02:09:02;;;;;;;68.30;5.50;;;;;;;;;;747976;183;920625;-63
2023/08/10 02:11:28;;;;;;;93.57;6.83;;;;;;;;;;749341;185;820409;-62
2023/08/10 02:13:54;;;;;;;138.03;7.47;;;;;;;;;;748171;185;919317;-64
2023/08/10 02:16:20;;;;;;;32.20;4.57;;;;;;;;;;746226;185;902618;-65
2023/08/10 02:18:45;;;;;;;171.67;10.10;;;;;;;;;;747002;185;914450;-62
2023/08/10 02:21:12;;;;;;;117.03;6.47;;;;;;;;;;750058;186;919978;-61
2023/08/10 02:23:37;;;;;;;59.37;5.17;;;;;;;;;;747585;183;835231;-61
2023/08/10 02:26:03;;;;;;;65.87;4.07;;;;;;;;;;743914;184;919378;-62
2023/08/10 02:28:29;;;;;;;60.83;4.20;;;;;;;;;;751748;184;922307;-63
2023/08/10 02:30:55;;;;;;;69.53;4.70;;;;;;;;;;750486;185;920891;-62
2023/08/10 02:33:20;;;;;;;66.97;5.07;;;;;;;;;;745188;186;1017921;-63
2023/08/10 02:35:46;;;;;;;69.10;4.77;;;;;;;;;;747975;185;920880;-62
2023/08/10 02:38:12;;;;;;;55.80;4.27;;;;;;;;;;743983;185;917365;-65
2023/08/10 02:40:38;;;;;;;52.17;3.92;;;;;;;;;;745757;185;943845;-66
2023/08/10 02:43:04;;;;;;;54.57;4.23;;;;;;;;;;752111;185;919099;-61
2023/08/10 02:45:30;;;;;;;33.93;3.47;;;;;;;;;;746371;185;919166;-65
2023/08/10 02:47:55;;;;;;;11.60;2.17;;;;;;;;;;746641;185;919270;-62
2023/08/10 02:50:21;;;;;;;19.47;2.50;;;;;;;;;;747612;184;922209;-65
2023/08/10 02:52:47;;;;;;;18.73;2.25;;;;;;;;;;740233;186;918150;-67
2023/08/10 02:55:13;;;;;;;41.33;3.47;;;;;;;;;;747820;184;919792;-62
2023/08/10 02:57:39;;;;;;;101.27;6.13;;;;;;;;;;746547;185;918773;-65
2023/08/10 03:00:06;;;;;;;60.30;5.57;;;;;;;;;;752456;184;917916;-61
2023/08/10 03:02:31;;;;;;;67.95;5.30;;;;;;;;;;747238;184;920038;-66
2023/08/10 03:04:57;;;;;;;171.27;9.50;;;;;;;;;;744640;184;918253;-65
2023/08/10 03:07:23;;;;;;;72.10;5.30;;;;;;;;;;747990;184;919533;-62
2023/08/10 03:09:50;;;;;;;180.60;9.07;;;;;;;;;;744042;185;918740;-61
2023/08/10 03:12:14;;;;;;;134.33;8.60;;;;;;;;;;753157;184;917921;-61
2023/08/10 03:14:40;;;;;;;54.60;5.40;;;;;;;;;;748037;184;814582;-65
2023/08/10 03:17:06;;;;;;;169.03;9.07;;;;;;;;;;745358;186;843230;-64
2023/08/10 03:19:32;;;;;;;272.63;12.80;;;;;;;;;;729802;190;943887;-62
2023/08/10 03:21:58;;;;;;;108.60;10.30;;;;;;;;;;735122;190;917666;-66
2023/08/10 03:24:24;;;;;;;55.07;5.40;;;;;;;;;;747110;188;865704;-65
2023/08/10 03:26:50;;;;;;;113.60;7.80;;;;;;;;;;741506;188;859287;-63
2023/08/10 03:29:15;;;;;;;111.13;7.33;;;;;;;;;;745252;184;918492;-61
2023/08/10 03:31:41;;;;;;;187.20;10.10;;;;;;;;;;751444;185;924364;-62
2023/08/10 03:34:07;;;;;;;174.85;10.02;;;;;;;;;;740863;184;919258;-61
2023/08/10 03:36:33;;;;;;;128.83;7.33;;;;;;;;;;743608;185;919613;-61
2023/08/10 03:38:59;;;;;;;102.70;6.27;;;;;;;;;;745530;185;841473;-66
2023/08/10 03:41:25;;;;;;;144.63;7.80;;;;;;;;;;756214;184;818568;-62
2023/08/10 03:43:51;;;;;;;81.43;5.77;;;;;;;;;;746873;184;919489;-66
2023/08/10 03:46:16;;;;;;;152.63;8.13;;;;;;;;;;747773;185;919298;-63
2023/08/10 03:48:42;;;;;;;93.07;5.73;;;;;;;;;;733962;188;919206;-62
2023/08/10 03:51:08;;;;;;;94.60;6.03;;;;;;;;;;736192;188;919721;-64
2023/08/10 03:53:34;;;;;;;126.63;6.53;;;;;;;;;;740230;188;919314;-64
2023/08/10 03:56:00;;;;;;;161.43;7.40;;;;;;;;;;759407;184;875340;-63
2023/08/10 03:58:26;;;;;;;85.33;5.87;;;;;;;;;;745528;183;917703;-62
2023/08/10 04:00:51;;;;;;;202.17;9.87;;;;;;;;;;744602;188;917409;-63
2023/08/10 04:03:17;;;;;;;181.68;10.57;;;;;;;;;;751759;184;896730;-62
2023/08/10 04:05:43;;;;;;;204.57;10.43;;;;;;;;;;745071;184;919578;-64
2023/08/10 04:08:09;;;;;;;227.25;10.80;;;;;;;;;;748629;184;918488;-66
2023/08/10 04:10:35;;;;;;;188.40;9.50;;;;;;;;;;745832;186;919889;-64
2023/08/10 04:13:01;;;;;;;99.00;6.23;;;;;;;;;;756149;184;817663;-65
2023/08/10 04:15:27;;;;;;;173.23;10.43;;;;;;;;;;733079;188;919401;-64
2023/08/10 04:17:52;;;;;;;134.63;6.27;;;;;;;;;;735738;189;919210;-61
2023/08/10 04:20:18;;;;;;;132.40;7.20;;;;;;;;;;745163;188;918873;-61
2023/08/10 04:22:44;;;;;;;86.37;5.73;;;;;;;;;;735656;187;919127;-62
2023/08/10 04:25:10;;;;;;;193.93;8.70;;;;;;;;;;744684;186;919612;-62
2023/08/10 04:27:36;;;;;;;106.17;5.27;;;;;;;;;;748935;184;913167;-65
2023/08/10 04:30:04;;;;;;;171.63;7.40;;;;;;;;;;743991;184;918078;-63
2023/08/10 04:32:28;;;;;;;96.03;5.73;;;;;;;;;;744612;184;911231;-65
2023/08/10 04:34:54;;;;;;;94.33;6.03;;;;;;;;;;745242;184;907695;-63
2023/08/10 04:37:20;;;;;;;128.32;6.03;;;;;;;;;;748890;184;913416;-64
2023/08/10 04:39:46;;;;;;;84.57;4.67;;;;;;;;;;745699;184;913444;-61
2023/08/10 04:42:12;;;;;;;77.18;4.22;;;;;;;;;;739823;184;1734654;-65
2023/08/10 04:44:37;;;;;;;65.33;3.90;;;;;;;;;;748448;185;923106;-63
2023/08/10 04:47:04;;;;;;;35.97;2.70;;;;;;;;;;747684;183;1023801;-61
2023/08/10 04:49:30;;;;;;;93.17;4.80;;;;;;;;;;745915;185;1022180;-63
2023/08/10 04:51:56;;;;;;;75.40;4.57;;;;;;;;;;752084;184;918998;-60
2023/08/10 04:54:22;;;;;;;67.03;4.07;;;;;;;;;;741527;184;1018706;-64
2023/08/10 04:56:47;;;;;;;80.63;4.97;;;;;;;;;;745023;185;919354;-64
2023/08/10 04:59:13;;;;;;;38.70;2.80;;;;;;;;;;746342;185;921414;-60
2023/08/10 05:01:38;;;;;;;60.47;4.20;;;;;;;;;;749798;185;845421;-61
2023/08/10 05:04:05;;;;;;;64.33;4.27;;;;;;;;;;749397;185;919021;-60
2023/08/10 05:06:31;;;;;;;55.45;4.15;;;;;;;;;;733828;190;847108;-63
2023/08/10 05:08:57;;;;;;;40.60;3.67;;;;;;;;;;746253;189;817974;-63
2023/08/10 05:11:23;;;;;;;22.17;2.47;;;;;;;;;;748579;185;819097;-63
2023/08/10 05:13:48;;;;;;;18.10;2.10;;;;;;;;;;746564;184;918174;-64
2023/08/10 05:16:15;;;;;;;57.17;3.40;;;;;;;;;;735032;189;918735;-61
2023/08/10 05:18:40;;;;;;;30.17;2.20;;;;;;;;;;740509;188;907695;-63
2023/08/10 05:21:06;;;;;;;47.17;2.83;;;;;;;;;;735615;184;928693;-62
2023/08/10 05:23:32;;;;;;;17.80;2.37;;;;;;;;;;757040;185;933038;-61
2023/08/10 05:25:58;;;;;;;52.40;3.40;;;;;;;;;;746467;186;920362;-63
2023/08/10 05:28:24;;;;;;;19.50;2.30;;;;;;;;;;744460;186;919321;-59
2023/08/10 05:30:50;;;;;;;5.00;1.42;;;;;;;;;;740210;188;922085;-63
2023/08/10 05:33:16;;;;;;;8.70;1.53;;;;;;;;;;747281;186;875873;-60
2023/08/10 05:35:42;;;;;;;7.07;2.00;;;;;;;;;;744628;184;919413;-61
2023/08/10 05:38:08;;;;;;;41.55;2.83;;;;;;;;;;747637;184;917837;-63
2023/08/10 05:40:33;;;;;;;7.93;2.00;;;;;;;;;;749466;184;919556;-60
2023/08/10 05:42:59;;;;;;;5.80;1.77;;;;;;;;;;743637;184;918190;-64
2023/08/10 05:45:26;;;;;;;4.47;1.80;;;;;;;;;;742641;185;818801;-61
2023/08/10 05:47:51;;;;;;;2.73;1.90;;;;;;;;;;738156;186;918999;-60
2023/08/10 05:50:17;;;;;;;2.40;1.67;;;;;;;;;;735882;189;919269;-61
2023/08/10 05:52:43;;;;;;;5.43;3.20;;;;;;;;;;738378;186;918611;-60
2023/08/10 05:55:08;;;;;;;2.60;1.70;;;;;;;;;;736326;186;924387;-65
2023/08/10 05:57:34;;;;;;;2.70;1.80;;;;;;;;;;753712;185;919285;-63
2023/08/10 06:00:00;;;;;;;4.60;2.73;;;;;;;;;;750487;184;918537;-65
2023/08/10 06:02:27;;;;;;;3.60;2.37;;;;;;;;;;738915;187;918722;-65
2023/08/10 06:04:52;;;;;;;3.25;1.85;;;;;;;;;;754838;185;919001;-65
2023/08/10 06:07:18;;;;;;;5.20;2.43;;;;;;;;;;741367;185;918939;-65
2023/08/10 06:09:44;;;;;;;3.20;2.60;;;;;;;;;;743546;186;921903;-64
2023/08/10 06:12:10;;;;;;;4.00;2.20;;;;;;;;;;739257;188;846985;-61
2023/08/10 06:14:36;;;;;;;3.63;2.40;;;;;;;;;;742991;185;817135;-65
2023/08/10 06:17:01;;;;;;;5.40;3.03;;;;;;;;;;745907;185;939445;-63
2023/08/10 06:19:27;;;;;;;5.00;2.40;;;;;;;;;;744279;185;918849;-63
2023/08/10 06:21:53;;;;;;;5.20;3.57;;;;;;;;;;755461;184;917237;-62
2023/08/10 06:24:19;;;;;;;5.30;2.77;;;;;;;;;;743532;184;881620;-62
2023/08/10 06:26:45;;;;;;;4.33;3.27;;;;;;;;;;753597;183;919411;-63
2023/08/10 06:29:10;;;;;;;3.87;2.80;;;;;;;;;;747042;186;919580;-63
2023/08/10 06:31:36;;;;;;;5.53;3.27;;;;;;;;;;742945;185;923584;-64
2023/08/10 06:34:03;;;;;;;3.77;3.00;;;;;;;;;;749894;184;928305;-64
2023/08/10 06:36:29;;;;;;;8.87;3.93;;;;;;;;;;751224;184;917946;-65
2023/08/10 06:38:55;;;;;;;5.47;3.57;;;;;;;;;;752182;185;914636;-65
2023/08/10 06:41:21;;;;;;;6.17;3.40;;;;;;;;;;738918;188;920705;-65
2023/08/10 06:43:46;;;;;;;6.10;3.30;;;;;;;;;;742450;186;918935;-65
2023/08/10 06:46:12;;;;;;;4.47;3.20;;;;;;;;;;742507;186;919274;-65
2023/08/10 06:48:38;;;;;;;5.97;3.57;;;;;;;;;;736684;184;919368;-63
2023/08/10 06:51:04;;;;;;;4.83;3.60;;;;;;;;;;746152;184;921622;-65
2023/08/10 06:53:31;;;;;;;4.27;3.17;;;;;;;;;;750761;185;918997;-64
2023/08/10 06:55:55;;;;;;;3.43;2.60;;;;;;;;;;744945;185;920933;-64
2023/08/10 06:58:21;;;;;;;5.47;3.00;;;;;;;;;;748049;184;920113;-63
2023/08/10 07:00:47;;;;;;;4.87;3.80;;;;;;;;;;746594;185;909678;-63
2023/08/10 07:03:14;;;;;;;4.63;3.30;;;;;;;;;;746027;185;813186;-64
2023/08/10 07:05:39;;;;;;;4.60;3.57;;;;;;;;;;745271;185;919291;-63
2023/08/10 07:08:05;;;;;;;4.23;3.50;;;;;;;;;;749219;185;818566;-66
2023/08/10 07:10:31;;;;;;;5.10;3.70;;;;;;;;;;742579;184;920273;-63
2023/08/10 07:12:56;;;;;;;4.67;3.60;;;;;;;;;;743319;185;917751;-65
2023/08/10 07:15:22;;;;;;;4.53;3.20;;;;;;;;;;745598;186;920818;-64
2023/08/10 07:17:48;;;;;;;4.30;3.03;;;;;;;;;;750563;184;821802;-66
2023/08/10 07:20:15;;;;;;;5.50;3.50;;;;;;;;;;746694;184;918688;-66
2023/08/10 07:22:45;;;;;;;5.73;3.77;;;;;;;;;;745956;185;917836;-64
2023/08/10 07:25:06;;;;;;;4.70;3.90;;;;;;;;;;749914;185;919282;-67
2023/08/10 07:27:32;;;;;;;6.13;3.40;;;;;;;;;;744751;185;918633;-63
2023/08/10 07:29:58;;;;;;;20.23;4.53;;;;;;;;;;746627;184;816616;-62
2023/08/10 07:32:23;;;;;;;5.50;3.73;;;;;;;;;;753048;184;629172;-63
2023/08/10 07:34:49;;;;;;;3.90;3.00;;;;;;;;;;751591;183;817769;-65
2023/08/10 07:37:16;;;;;;;3.67;2.80;;;;;;;;;;749339;183;915138;-64
2023/08/10 07:39:41;;;;;;;4.40;3.17;;;;;;;;;;737556;186;918276;-62
2023/08/10 07:42:07;;;;;;;6.83;3.40;;;;;;;;;;739666;189;918375;-61
2023/08/10 07:44:33;;;;;;;6.23;3.27;;;;;;;;;;736217;188;913277;-62
2023/08/10 07:46:58;;;;;;;4.67;3.40;;;;;;;;;;742411;186;636264;-65
2023/08/10 07:49:24;;;;;;;8.43;4.00;;;;;;;;;;758647;184;633964;-62
2023/08/10 07:51:50;;;;;;;6.70;3.07;;;;;;;;;;750384;185;620839;-65
2023/08/10 07:54:16;;;;;;;9.03;4.20;;;;;;;;;;751790;186;916363;-61
2023/08/10 07:56:42;;;;;;;5.72;3.40;;;;;;;;;;753906;184;907561;-63
2023/08/10 07:59:08;;;;;;;5.63;3.43;;;;;;;;;;744418;184;917759;-62
2023/08/10 08:01:33;;;;;;;3.78;3.12;;;;;;;;;;744501;186;926184;-62
2023/08/10 08:03:59;;;;;;;4.20;2.87;;;;;;;;;;746054;185;922114;-60
2023/08/10 08:06:25;;;;;;;5.47;3.17;;;;;;;;;;749397;186;812177;-61
2023/08/10 08:08:51;;;;;;;4.30;2.97;;;;;;;;;;742492;185;975868;-66
2023/08/10 08:11:17;;;;;;;3.33;2.40;;;;;;;;;;747875;184;916728;-65
2023/08/10 08:13:43;;;;;;;5.40;2.77;;;;;;;;;;747924;185;914910;-61
2023/08/10 08:16:08;;;;;;;6.23;3.10;;;;;;;;;;745821;185;915884;-61
2023/08/10 08:18:40;;;;;;;4.00;2.63;;;;;;;;;;745810;184;916331;-65
2023/08/10 08:21:06;;;;;;;4.03;2.95;;;;;;;;;;745114;184;923263;-64
2023/08/10 08:23:32;;;;;;;4.80;2.90;;;;;;;;;;742717;185;876190;-62
2023/08/10 08:25:58;;;;;;;7.30;2.53;;;;;;;;;;745209;184;915280;-61
2023/08/10 08:28:24;;;;;;;3.40;2.40;;;;;;;;;;744490;185;916044;-65
2023/08/10 08:30:50;;;;;;;5.00;2.60;;;;;;;;;;745543;187;915374;-62
2023/08/10 08:33:16;;;;;;;5.90;2.87;;;;;;;;;;744296;185;916127;-62
2023/08/10 08:35:41;;;;;;;6.90;3.03;;;;;;;;;;743612;184;919753;-66
2023/08/10 08:38:07;;;;;;;3.70;2.03;;;;;;;;;;750355;185;839071;-66
2023/08/10 08:40:33;;;;;;;3.63;2.40;;;;;;;;;;743412;185;918110;-64
2023/08/10 08:42:59;;;;;;;4.80;2.37;;;;;;;;;;736176;186;916553;-65
2023/08/10 08:45:25;;;;;;;4.33;1.93;;;;;;;;;;754551;185;815324;-62
2023/08/10 08:47:52;;;;;;;3.10;2.10;;;;;;;;;;750890;184;920401;-63
2023/08/10 08:50:17;;;;;;;5.00;2.87;;;;;;;;;;747731;184;919939;-62
2023/08/10 08:52:42;;;;;;;4.80;2.63;;;;;;;;;;750798;184;918575;-62
2023/08/10 08:55:09;;;;;;;5.10;2.50;;;;;;;;;;744302;188;919498;-62
2023/08/10 08:57:34;;;;;;;3.67;2.13;;;;;;;;;;742019;188;881206;-62
2023/08/10 09:00:01;;;;;;;3.50;2.40;;;;;;;;;;731505;187;922123;-65
2023/08/10 09:02:26;;;;;;;4.13;2.40;;;;;;;;;;747665;186;940289;-62
2023/08/10 09:04:54;;;;;;;4.90;2.20;;;;;;;;;;744461;186;845489;-63
2023/08/10 09:07:18;;;;;;;5.40;2.62;;;;;;;;;;732452;189;920531;-65
2023/08/10 09:09:44;;;;;;;5.40;2.67;;;;;;;;;;749410;184;923075;-64
2023/08/10 09:12:15;;;;;;;3.75;2.33;;;;;;;;;;747021;184;918890;-63
2023/08/10 09:14:41;;;;;;;3.50;2.63;;;;;;;;;;746392;185;852703;-62
2023/08/10 09:17:07;;;;;;;4.93;2.45;;;;;;;;;;744124;184;934895;-65
2023/08/10 09:19:33;;;;;;;4.47;1.90;;;;;;;;;;749322;186;920107;-63
2023/08/10 09:21:59;;;;;;;3.23;2.27;;;;;;;;;;740942;187;918652;-64
2023/08/10 09:24:24;;;;;;;3.87;2.53;;;;;;;;;;744912;187;919580;-64
2023/08/10 09:26:50;;;;;;;3.67;2.30;;;;;;;;;;741851;188;916202;-60
2023/08/10 09:29:16;;;;;;;4.03;2.40;;;;;;;;;;738306;186;885213;-65
2023/08/10 09:31:43;;;;;;;3.27;2.30;;;;;;;;;;739609;186;921432;-63
2023/08/10 09:34:13;;;;;;;4.40;2.33;;;;;;;;;;737689;187;918251;-64
2023/08/10 09:36:35;;;;;;;5.50;2.87;;;;;;;;;;742984;188;919787;-62
2023/08/10 09:39:00;;;;;;;3.90;2.30;;;;;;;;;;729306;188;919037;-66
2023/08/10 09:41:26;;;;;;;4.10;2.30;;;;;;;;;;741473;186;920981;-66
2023/08/10 09:43:52;;;;;;;7.80;2.83;;;;;;;;;;742501;189;784480;-66
2023/08/10 09:46:18;;;;;;;4.47;2.30;;;;;;;;;;736325;187;821020;-68
2023/08/10 09:48:45;;;;;;;5.15;2.85;;;;;;;;;;749009;185;816070;-66
2023/08/10 09:51:11;;;;;;;6.73;2.40;;;;;;;;;;750626;185;917582;-64
2023/08/10 09:53:36;;;;;;;9.30;2.90;;;;;;;;;;748789;185;918806;-65
2023/08/10 09:56:02;;;;;;;4.37;2.43;;;;;;;;;;739371;184;921089;-66
2023/08/10 09:58:28;;;;;;;6.57;2.53;;;;;;;;;;751755;183;816803;-66
2023/08/10 10:00:54;;;;;;;4.40;2.10;;;;;;;;;;753330;185;628615;-67
2023/08/10 10:03:20;;;;;;;7.00;2.90;;;;;;;;;;737607;188;629180;-64
2023/08/10 10:05:47;;;;;;;3.10;2.00;;;;;;;;;;737750;188;897774;-65
2023/08/10 10:08:12;;;;;;;6.60;2.40;;;;;;;;;;743592;188;626744;-64
2023/08/10 10:10:37;;;;;;;4.40;2.73;;;;;;;;;;734624;188;816087;-67
2023/08/10 10:13:06;;;;;;;4.07;2.43;;;;;;;;;;740016;186;823439;-67
2023/08/10 10:15:32;;;;;;;7.40;1.90;;;;;;;;;;745417;186;918750;-64
2023/08/10 10:17:58;;;;;;;3.47;2.20;;;;;;;;;;748991;184;918010;-64
2023/08/10 10:20:24;;;;;;;3.07;1.77;;;;;;;;;;745910;184;919131;-64
2023/08/10 10:22:49;;;;;;;4.03;2.40;;;;;;;;;;745268;184;918702;-64
2023/08/10 10:25:15;;;;;;;3.17;2.03;;;;;;;;;;751353;184;919581;-64
2023/08/10 10:27:41;;;;;;;5.63;1.73;;;;;;;;;;745724;184;919706;-67
2023/08/10 10:30:08;;;;;;;5.10;2.40;;;;;;;;;;744012;184;919076;-67
2023/08/10 10:32:34;;;;;;;2.97;1.77;;;;;;;;;;749524;184;920463;-64
2023/08/10 10:35:00;;;;;;;4.30;1.90;;;;;;;;;;743764;184;915525;-62
2023/08/10 10:37:27;;;;;;;3.50;1.73;;;;;;;;;;740430;189;919169;-66
2023/08/10 10:39:53;;;;;;;4.60;2.17;;;;;;;;;;740410;188;919833;-66
2023/08/10 10:42:18;;;;;;;3.67;1.70;;;;;;;;;;739072;188;919143;-63
2023/08/10 10:44:50;;;;;;;5.43;2.27;;;;;;;;;;737512;185;919000;-63
2023/08/10 10:47:16;;;;;;;4.03;2.07;;;;;;;;;;743776;185;919111;-64
2023/08/10 10:49:42;;;;;;;5.37;2.13;;;;;;;;;;751187;185;917241;-67
2023/08/10 10:52:08;;;;;;;4.57;1.90;;;;;;;;;;735857;186;919371;-65
2023/08/10 10:54:34;;;;;;;3.20;2.07;;;;;;;;;;731181;189;920042;-67
2023/08/10 10:56:59;;;;;;;3.30;1.90;;;;;;;;;;733752;188;918869;-64
2023/08/10 10:59:25;;;;;;;3.33;1.87;;;;;;;;;;743201;189;919310;-63
2023/08/10 11:01:51;;;;;;;3.40;2.10;;;;;;;;;;738903;188;918065;-63
2023/08/10 11:04:17;;;;;;;4.47;2.10;;;;;;;;;;732009;186;920148;-67
2023/08/10 11:06:43;;;;;;;2.70;1.40;;;;;;;;;;745014;188;824369;-67
2023/08/10 11:09:09;;;;;;;4.27;2.17;;;;;;;;;;745305;185;919554;-67
2023/08/10 11:11:35;;;;;;;4.62;2.20;;;;;;;;;;746197;184;920351;-66
2023/08/10 11:14:01;;;;;;;3.03;1.60;;;;;;;;;;750275;184;918603;-67
2023/08/10 11:16:26;;;;;;;3.00;1.70;;;;;;;;;;751438;184;816558;-68
2023/08/10 11:18:53;;;;;;;3.10;1.80;;;;;;;;;;740081;188;918986;-68
2023/08/10 11:21:18;;;;;;;3.20;1.77;;;;;;;;;;740081;188;920740;-64
2023/08/10 11:23:44;;;;;;;4.73;1.60;;;;;;;;;;751276;186;817661;-64
2023/08/10 11:26:11;;;;;;;4.90;1.73;;;;;;;;;;745291;184;918585;-62
2023/08/10 11:28:37;;;;;;;4.13;1.90;;;;;;;;;;747326;183;919434;-64
2023/08/10 11:31:01;;;;;;;3.67;2.13;;;;;;;;;;751359;184;817290;-67
2023/08/10 11:33:27;;;;;;;5.20;1.87;;;;;;;;;;744174;184;941230;-68
2023/08/10 11:35:53;;;;;;;4.10;2.03;;;;;;;;;;753564;184;824215;-63
2023/08/10 11:38:19;;;;;;;3.33;1.80;;;;;;;;;;751528;185;816404;-62
2023/08/10 11:40:45;;;;;;;3.00;1.80;;;;;;;;;;748394;184;803909;-61
2023/08/10 11:43:12;;;;;;;3.40;1.67;;;;;;;;;;746762;185;922843;-67
2023/08/10 11:45:37;;;;;;;3.33;1.60;;;;;;;;;;747839;185;919170;-66
2023/08/10 11:48:04;;;;;;;3.87;2.10;;;;;;;;;;747254;184;815594;-67
2023/08/10 11:50:30;;;;;;;4.03;1.93;;;;;;;;;;743340;184;912737;-67
2023/08/10 11:52:55;;;;;;;12.80;3.50;;;;;;;;;;743073;185;912304;-68
2023/08/10 11:55:21;;;;;;;10.60;2.53;;;;;;;;;;751356;185;819581;-68
2023/08/10 11:57:48;;;;;;;4.60;1.70;;;;;;;;;;744727;184;947876;-64
2023/08/10 12:00:23;;;;;;;4.70;2.30;;;;;;;;;;746125;185;912341;-63
2023/08/10 12:02:55;;;;;;;4.40;1.80;;;;;;;;;;751804;184;912146;-63
2023/08/10 12:05:20;;;;;;;3.37;2.10;;;;;;;;;;744302;186;814860;-62
2023/08/10 12:07:47;;;;;;;4.20;2.20;;;;;;;;;;739057;186;919034;-66
2023/08/10 12:10:12;;;;;;;9.23;3.30;;;;;;;;;;740401;185;919781;-65
2023/08/10 12:12:38;;;;;;;5.77;2.20;;;;;;;;;;756769;185;919654;-61
2023/08/10 12:15:08;;;;;;;3.87;2.20;;;;;;;;;;746335;184;923475;-63
2023/08/10 12:17:34;;;;;;;6.03;1.97;;;;;;;;;;745412;185;920847;-68
2023/08/10 12:20:00;;;;;;;6.20;2.07;;;;;;;;;;752893;184;917867;-63
2023/08/10 12:22:26;;;;;;;3.93;2.47;;;;;;;;;;751981;184;637378;-62
2023/08/10 12:24:52;;;;;;;5.90;2.43;;;;;;;;;;748167;188;816870;-68
2023/08/10 12:27:18;;;;;;;4.17;1.90;;;;;;;;;;746935;184;815854;-63
2023/08/10 12:29:44;;;;;;;4.80;1.97;;;;;;;;;;750505;185;918991;-68
2023/08/10 12:32:09;;;;;;;4.17;1.90;;;;;;;;;;751302;184;810662;-67
2023/08/10 12:34:35;;;;;;;2.93;1.70;;;;;;;;;;750836;185;620233;-63
2023/08/10 12:37:01;;;;;;;3.60;2.10;;;;;;;;;;742978;184;919181;-67
2023/08/10 12:39:27;;;;;;;4.70;1.80;;;;;;;;;;751283;185;920088;-67
2023/08/10 12:41:53;;;;;;;4.93;2.10;;;;;;;;;;743432;184;917743;-63
2023/08/10 12:44:19;;;;;;;3.57;2.10;;;;;;;;;;749562;184;781413;-66
2023/08/10 12:46:44;;;;;;;4.83;1.90;;;;;;;;;;752716;185;918808;-65
2023/08/10 12:49:10;;;;;;;4.10;2.20;;;;;;;;;;740999;189;917224;-61
2023/08/10 12:51:36;;;;;;;4.83;2.03;;;;;;;;;;742209;184;918052;-64
2023/08/10 12:54:02;;;;;;;5.23;2.17;;;;;;;;;;749812;184;911680;-62
2023/08/10 12:56:28;;;;;;;3.97;1.93;;;;;;;;;;744907;185;920224;-65
2023/08/10 12:58:54;;;;;;;4.50;2.03;;;;;;;;;;748800;185;919789;-66
2023/08/10 13:01:19;;;;;;;3.70;2.53;;;;;;;;;;748679;185;917040;-67
2023/08/10 13:03:45;;;;;;;2.80;2.10;;;;;;;;;;743362;184;921051;-67
2023/08/10 13:06:11;;;;;;;2.80;1.60;;;;;;;;;;743271;185;942100;-67
2023/08/10 13:08:37;;;;;;;8.60;2.23;;;;;;;;;;745953;185;919150;-67
2023/08/10 13:11:03;;;;;;;3.90;2.00;;;;;;;;;;750685;185;817909;-69
2023/08/10 13:13:29;;;;;;;4.20;2.30;;;;;;;;;;747989;184;918743;-63
2023/08/10 13:15:55;;;;;;;4.85;2.42;;;;;;;;;;746464;185;893547;-64
2023/08/10 13:18:20;;;;;;;4.07;2.37;;;;;;;;;;750406;185;818237;-64
2023/08/10 13:20:46;;;;;;;3.17;2.13;;;;;;;;;;743442;185;919443;-65
2023/08/10 13:23:12;;;;;;;2.97;1.40;;;;;;;;;;742235;185;919388;-67
2023/08/10 13:25:38;;;;;;;3.70;1.87;;;;;;;;;;746763;185;918571;-69
2023/08/10 13:28:04;;;;;;;3.60;2.17;;;;;;;;;;748505;184;721269;-64
2023/08/10 13:30:30;;;;;;;5.03;2.03;;;;;;;;;;747771;182;919541;-64
2023/08/10 13:32:55;;;;;;;4.23;1.83;;;;;;;;;;745583;184;918850;-65
2023/08/10 13:35:21;;;;;;;3.70;2.10;;;;;;;;;;752558;184;813232;-65
2023/08/10 13:37:47;;;;;;;4.33;1.90;;;;;;;;;;744943;185;916486;-63
2023/08/10 13:40:13;;;;;;;3.73;1.80;;;;;;;;;;745498;185;919722;-65
2023/08/10 13:42:39;;;;;;;4.73;2.43;;;;;;;;;;752271;184;926015;-64
2023/08/10 13:45:05;;;;;;;3.57;2.30;;;;;;;;;;741804;184;917762;-65
2023/08/10 13:47:31;;;;;;;3.43;1.80;;;;;;;;;;744676;184;877791;-63
2023/08/10 13:49:58;;;;;;;3.23;1.90;;;;;;;;;;736356;187;921211;-70
2023/08/10 13:52:23;;;;;;;3.80;2.00;;;;;;;;;;734833;188;915384;-64
2023/08/10 13:54:49;;;;;;;7.67;5.70;;;;;;;;;;740799;186;920380;-64
2023/08/10 13:57:17;;;;;;;10.83;5.50;;;;;;;;;;740682;188;920805;-65
2023/08/10 13:59:40;;;;;;;28.23;11.57;;;;;;;;;;734804;188;918441;-67
2023/08/10 14:02:08;;;;;;;10.10;5.50;;;;;;;;;;743784;186;918555;-68
2023/08/10 14:04:32;;;;;;;9.73;6.00;;;;;;;;;;740464;187;919730;-63
2023/08/10 14:06:58;;;;;;;11.02;6.55;;;;;;;;;;748837;184;918570;-63
2023/08/10 14:09:25;;;;;;;3.45;2.05;;;;;;;;;;736040;186;918219;-63
2023/08/10 14:11:50;;;;;;;4.40;2.17;;;;;;;;;;746208;185;918804;-67
2023/08/10 14:14:17;;;;;;;4.53;2.60;;;;;;;;;;747917;185;919007;-69
2023/08/10 14:16:42;;;;;;;6.17;2.60;;;;;;;;;;740876;186;920373;-67